^^
Your Local Weather - Clay, NY Station Historical Data
Daily Summary for April 23, 2017 Units:  English    Metric   Both
« Previous Day
Next Day »
Daily Weekly Monthly Yearly Custom
  High: Low: Average:
Temperature: 66.1 °F 31.0 °F 48.7 °F
Dew Point: 42.8 °F 28.9 °F 35 °F
Humidity: 93% 27% 65%
Wind Speed: 3.0mph 0.0mph 0.9mph
Wind Gust: 8.0mph - -
Wind- - WSW
Pressure: 30.11 in 29.98 in -
Precipitation: 0.00 in    
Historical Graphs
 
 
Tabular Data for April 23, 2017
Time Temperature Dew Point Pressure Wind Wind Speed Wind Gust Humidity Rainfall Rate (Hourly) solar
00:00 35.8 °F 32.6 °F 30.06 in Calm     88% 0.00 in 0 W/m2
00:06 35.6 °F 32.4 °F 30.06 in Calm     88% 0.00 in 0 W/m2
00:12 35.6 °F 32.7 °F 30.06 in Calm     89% 0.00 in 0 W/m2
00:18 35.5 °F 32.6 °F 30.06 in Calm     89% 0.00 in 0 W/m2
00:24 35.5 °F 32.6 °F 30.07 in Calm     89% 0.00 in 0 W/m2
00:30 35.5 °F 32.6 °F 30.07 in Calm     89% 0.00 in 0 W/m2
00:36 35.3 °F 32.4 °F 30.07 in Calm     89% 0.00 in 0 W/m2
00:42 35.2 °F 32.3 °F 30.07 in Calm     89% 0.00 in 0 W/m2
00:48 35.0 °F 32.1 °F 30.07 in Calm     89% 0.00 in 0 W/m2
00:54 35.2 °F 32.3 °F 30.07 in Calm     89% 0.00 in 0 W/m2
01:06 35.5 °F 32.9 °F 30.07 in Calm     90% 0.00 in 0 W/m2
01:12 35.5 °F 32.9 °F 30.07 in Calm     90% 0.00 in 0 W/m2
01:18 35.4 °F 32.8 °F 30.07 in Calm     90% 0.00 in 0 W/m2
01:24 35.3 °F 32.7 °F 30.07 in Calm     90% 0.00 in 0 W/m2
01:30 35.0 °F 32.4 °F 30.08 in Calm     90% 0.00 in 0 W/m2
01:36 34.8 °F 32.2 °F 30.07 in Calm     90% 0.00 in 0 W/m2
01:42 34.7 °F 32.1 °F 30.08 in Calm     90% 0.00 in 0 W/m2
01:48 34.6 °F 32.0 °F 30.07 in Calm     90% 0.00 in 0 W/m2
01:54 34.5 °F 31.9 °F 30.07 in Calm     90% 0.00 in 0 W/m2
02:00 34.4 °F 32.0 °F 30.07 in Calm     91% 0.00 in 0 W/m2
02:12 34.1 °F 31.7 °F 30.07 in Calm     91% 0.00 in 0 W/m2
02:18 34.0 °F 31.6 °F 30.07 in Calm     91% 0.00 in 0 W/m2
02:24 33.9 °F 31.6 °F 30.07 in Calm     91% 0.00 in 0 W/m2
02:30 33.6 °F 31.3 °F 30.06 in Calm     91% 0.00 in 0 W/m2
02:36 33.4 °F 31.1 °F 30.06 in Calm     91% 0.00 in 0 W/m2
02:42 33.4 °F 31.1 °F 30.06 in Calm     91% 0.00 in 0 W/m2
02:48 33.4 °F 31.1 °F 30.06 in Calm     91% 0.00 in 0 W/m2
02:54 33.3 °F 31.0 °F 30.06 in Calm     91% 0.00 in 0 W/m2
03:00 33.4 °F 31.1 °F 30.06 in Calm     91% 0.00 in 0 W/m2
03:06 33.3 °F 31.0 °F 30.06 in Calm     91% 0.00 in 0 W/m2
03:12 33.2 °F 30.9 °F 30.06 in Calm     91% 0.00 in 0 W/m2
03:18 33.1 °F 30.8 °F 30.06 in Calm     91% 0.00 in 0 W/m2
03:24 32.9 °F 30.6 °F 30.06 in Calm     91% 0.00 in 0 W/m2
03:30 32.9 °F 30.6 °F 30.06 in Calm     91% 0.00 in 0 W/m2
03:36 32.7 °F 30.4 °F 30.06 in Calm     91% 0.00 in 0 W/m2
03:42 32.6 °F 30.3 °F 30.06 in Calm     91% 0.00 in 0 W/m2
03:48 32.6 °F 30.3 °F 30.06 in Calm     91% 0.00 in 0 W/m2
03:54 32.6 °F 30.5 °F 30.06 in Calm     92% 0.00 in 0 W/m2
04:00 32.5 °F 30.4 °F 30.06 in Calm     92% 0.00 in 0 W/m2
04:06 32.5 °F 30.4 °F 30.06 in Calm     92% 0.00 in 0 W/m2
04:12 32.5 °F 30.4 °F 30.06 in Calm     92% 0.00 in 0 W/m2
04:18 32.4 °F 30.3 °F 30.06 in Calm     92% 0.00 in 0 W/m2
04:24 32.3 °F 30.2 °F 30.06 in Calm     92% 0.00 in 0 W/m2
04:30 32.2 °F 30.1 °F 30.06 in Calm     92% 0.00 in 0 W/m2
04:36 32.1 °F 30.0 °F 30.06 in Calm     92% 0.00 in 0 W/m2
04:42 32.1 °F 30.0 °F 30.06 in Calm     92% 0.00 in 0 W/m2
04:48 32.0 °F 29.9 °F 30.06 in Calm     92% 0.00 in 0 W/m2
04:54 31.9 °F 29.8 °F 30.06 in Calm     92% 0.00 in 0 W/m2
05:00 31.7 °F 29.6 °F 30.06 in Calm     92% 0.00 in 0 W/m2
05:06 31.8 °F 29.7 °F 30.06 in Calm     92% 0.00 in 0 W/m2
05:12 31.8 °F 29.7 °F 30.06 in Calm     92% 0.00 in 0 W/m2
05:18 31.6 °F 29.5 °F 30.06 in Calm     92% 0.00 in 0 W/m2
05:24 31.5 °F 29.4 °F 30.06 in Calm     92% 0.00 in 0 W/m2
05:30 31.3 °F 29.2 °F 30.06 in Calm     92% 0.00 in 0 W/m2
05:36 31.1 °F 29.0 °F 30.06 in Calm     92% 0.00 in 0 W/m2
05:42 31.0 °F 28.9 °F 30.06 in Calm     92% 0.00 in 0 W/m2
05:48 31.2 °F 29.1 °F 30.07 in Calm     92% 0.00 in 0 W/m2
05:54 31.2 °F 29.1 °F 30.07 in Calm     92% 0.00 in 0 W/m2
06:00 31.3 °F 29.2 °F 30.08 in Calm     92% 0.00 in 0 W/m2
06:06 31.3 °F 29.2 °F 30.08 in Calm     92% 0.00 in 0 W/m2
06:12 31.2 °F 29.1 °F 30.08 in Calm     92% 0.00 in 5 W/m2
06:18 31.1 °F 29.0 °F 30.08 in Calm     92% 0.00 in 7 W/m2
06:24 31.1 °F 29.0 °F 30.08 in Calm     92% 0.00 in 11 W/m2
06:30 31.2 °F 29.1 °F 30.09 in Calm     92% 0.00 in 12 W/m2
06:36 31.3 °F 29.2 °F 30.09 in Calm     92% 0.00 in 16 W/m2
06:42 31.6 °F 29.5 °F 30.09 in Calm     92% 0.00 in 23 W/m2
06:48 31.8 °F 30.0 °F 30.09 in Calm     93% 0.00 in 35 W/m2
06:54 32.2 °F 30.1 °F 30.09 in Calm     92% 0.00 in 63 W/m2
07:00 32.9 °F 31.1 °F 30.10 in Calm     93% 0.00 in 100 W/m2
07:06 34.4 °F 32.6 °F 30.10 in Calm     93% 0.00 in 135 W/m2
07:12 36.5 °F 34.7 °F 30.10 in Calm     93% 0.00 in 155 W/m2
07:18 37.3 °F 35.5 °F 30.10 in Calm     93% 0.00 in 172 W/m2
07:24 37.8 °F 36.0 °F 30.10 in Calm     93% 0.00 in 186 W/m2
07:30 38.1 °F 36.3 °F 30.11 in Calm     93% 0.00 in 202 W/m2
07:36 38.6 °F 36.8 °F 30.11 in Calm     93% 0.00 in 216 W/m2
07:42 39.5 °F 37.6 °F 30.11 in Calm     93% 0.00 in 232 W/m2
07:48 39.9 °F 38.0 °F 30.11 in Calm     93% 0.00 in 248 W/m2
07:54 40.5 °F 38.6 °F 30.11 in Calm     93% 0.00 in 265 W/m2
08:00 40.9 °F 39.0 °F 30.11 in Calm   3.0 mph 93% 0.00 in 265 W/m2
08:06 41.3 °F 39.2 °F 30.11 in SW 1.0 mph 3.0 mph 92% 0.00 in 272 W/m2
08:12 42.2 °F 39.2 °F 30.11 in SSW 1.0 mph 1.0 mph 89% 0.00 in 316 W/m2
08:18 42.9 °F 38.7 °F 30.11 in SSW 1.0 mph 4.0 mph 85% 0.00 in 294 W/m2
08:24 43.4 °F 38.6 °F 30.11 in SW 1.0 mph 2.0 mph 83% 0.00 in 297 W/m2
08:30 44.2 °F 38.4 °F 30.11 in SSW 1.0 mph 1.0 mph 80% 0.00 in 246 W/m2
08:36 44.7 °F 38.6 °F 30.11 in WSW 2.0 mph 3.0 mph 79% 0.00 in 359 W/m2
08:42 45.1 °F 38.3 °F 30.11 in SW 2.0 mph 2.0 mph 77% 0.00 in 357 W/m2
08:48 45.8 °F 39.3 °F 30.11 in SW 1.0 mph 2.0 mph 78% 0.00 in 410 W/m2
08:54 46.2 °F 38.7 °F 30.11 in SSW 1.0 mph 3.0 mph 75% 0.00 in 339 W/m2
09:00 46.5 °F 38.7 °F 30.11 in SSE 1.0 mph 2.0 mph 74% 0.00 in 413 W/m2
09:06 46.8 °F 38.6 °F 30.11 in WSW 2.0 mph 3.0 mph 73% 0.00 in 468 W/m2
09:12 47.2 °F 38.6 °F 30.11 in SSW 2.0 mph 5.0 mph 72% 0.00 in 506 W/m2
09:18 47.6 °F 38.7 °F 30.11 in SSW 1.0 mph 5.0 mph 71% 0.00 in 531 W/m2
09:24 48.4 °F 39.4 °F 30.11 in Calm   1.0 mph 71% 0.00 in 550 W/m2
09:36 48.9 °F 38.8 °F 30.11 in WSW 1.0 mph 2.0 mph 68% 0.00 in 585 W/m2
09:42 49.5 °F 39.4 °F 30.11 in West 1.0 mph 1.0 mph 68% 0.00 in 606 W/m2
09:48 50.0 °F 39.1 °F 30.11 in SSW 1.0 mph 1.0 mph 66% 0.00 in 622 W/m2
09:54 50.6 °F 39.3 °F 30.11 in WSW 1.0 mph 1.0 mph 65% 0.00 in 640 W/m2
10:00 51.0 °F 38.4 °F 30.11 in SW 1.0 mph 1.0 mph 62% 0.00 in 657 W/m2
10:06 51.8 °F 40.0 °F 30.11 in NW 1.0 mph 3.0 mph 64% 0.00 in 671 W/m2
10:12 51.7 °F 39.1 °F 30.11 in SSE 1.0 mph 2.0 mph 62% 0.00 in 691 W/m2
10:18 51.9 °F 40.1 °F 30.11 in SSW 2.0 mph 2.0 mph 64% 0.00 in 708 W/m2
10:24 53.1 °F 39.6 °F 30.11 in WSW 1.0 mph 2.0 mph 60% 0.00 in 721 W/m2
10:30 52.7 °F 38.8 °F 30.11 in South 1.0 mph 1.0 mph 59% 0.00 in 737 W/m2
10:36 52.7 °F 40.5 °F 30.10 in South 1.0 mph 4.0 mph 63% 0.00 in 752 W/m2
10:42 53.6 °F 40.5 °F 30.10 in NNW 2.0 mph 5.0 mph 61% 0.00 in 768 W/m2
10:48 54.0 °F 41.7 °F 30.10 in South 2.0 mph 8.0 mph 63% 0.00 in 782 W/m2
10:54 54.6 °F 42.3 °F 30.10 in SW 2.0 mph 8.0 mph 63% 0.00 in 793 W/m2
11:00 53.9 °F 38.6 °F 30.10 in SSW 2.0 mph 2.0 mph 56% 0.00 in 803 W/m2
11:06 54.7 °F 41.1 °F 30.09 in South 2.0 mph 5.0 mph 60% 0.00 in 817 W/m2
11:12 54.7 °F 40.2 °F 30.09 in SE 2.0 mph 2.0 mph 58% 0.00 in 826 W/m2
11:18 55.3 °F 39.4 °F 30.09 in SW 2.0 mph 3.0 mph 55% 0.00 in 837 W/m2
11:24 56.6 °F 41.5 °F 30.09 in WNW 1.0 mph 3.0 mph 57% 0.00 in 844 W/m2
11:30 57.5 °F 41.0 °F 30.09 in WNW 1.0 mph 3.0 mph 54% 0.00 in 851 W/m2
11:36 56.9 °F 38.4 °F 30.09 in South 1.0 mph 4.0 mph 50% 0.00 in 861 W/m2
11:42 57.2 °F 38.2 °F 30.09 in West 1.0 mph 1.0 mph 49% 0.00 in 867 W/m2
11:48 57.5 °F 40.0 °F 30.09 in West 1.0 mph 3.0 mph 52% 0.00 in 872 W/m2
11:54 57.9 °F 42.3 °F 30.09 in WSW 1.0 mph 3.0 mph 56% 0.00 in 877 W/m2
12:00 57.7 °F 37.6 °F 30.08 in NNW 2.0 mph 2.0 mph 47% 0.00 in 882 W/m2
12:06 58.0 °F 39.5 °F 30.08 in NE 2.0 mph 4.0 mph 50% 0.00 in 889 W/m2
12:12 58.2 °F 41.6 °F 30.08 in WNW 1.0 mph 3.0 mph 54% 0.00 in 893 W/m2
12:18 58.8 °F 38.6 °F 30.08 in WNW 2.0 mph 3.0 mph 47% 0.00 in 898 W/m2
12:24 58.8 °F 37.5 °F 30.08 in WNW 2.0 mph 2.0 mph 45% 0.00 in 900 W/m2
12:30 58.0 °F 35.0 °F 30.08 in South 1.0 mph 3.0 mph 42% 0.00 in 902 W/m2
12:36 58.4 °F 42.8 °F 30.08 in SSE 1.0 mph 4.0 mph 56% 0.00 in 905 W/m2
12:40 58.6 °F 35.0 °F 30.08 in South 1.0 mph 2.0 mph 41% 0.00 in 907 W/m2
12:46 58.6 °F 36.7 °F 30.07 in SSW 2.0 mph 4.0 mph 44% 0.00 in 912 W/m2
12:52 59.7 °F 39.4 °F 30.07 in WSW 2.0 mph 6.0 mph 47% 0.00 in 912 W/m2
12:58 59.8 °F 36.0 °F 30.07 in NW 2.0 mph 6.0 mph 41% 0.00 in 911 W/m2
13:04 60.2 °F 38.2 °F 30.07 in WNW 2.0 mph 3.0 mph 44% 0.00 in 912 W/m2
13:10 60.0 °F 39.7 °F 30.06 in SW 2.0 mph 2.0 mph 47% 0.00 in 911 W/m2
13:16 60.2 °F 39.9 °F 30.06 in South 2.0 mph 5.0 mph 47% 0.00 in 914 W/m2
13:22 60.5 °F 36.7 °F 30.06 in WNW 3.0 mph 4.0 mph 41% 0.00 in 914 W/m2
13:28 61.3 °F 33.4 °F 30.06 in West 2.0 mph 4.0 mph 35% 0.00 in 909 W/m2
13:34 60.9 °F 34.4 °F 30.06 in SSE 2.0 mph 4.0 mph 37% 0.00 in 907 W/m2
13:40 60.7 °F 35.6 °F 30.05 in NW 3.0 mph 5.0 mph 39% 0.00 in 904 W/m2
13:46 61.9 °F 40.9 °F 30.05 in West 2.0 mph 5.0 mph 46% 0.00 in 898 W/m2
13:52 62.1 °F 36.8 °F 30.05 in WNW 2.0 mph 3.0 mph 39% 0.00 in 896 W/m2
13:58 61.8 °F 40.2 °F 30.04 in WNW 2.0 mph 3.0 mph 45% 0.00 in 893 W/m2
14:04 61.6 °F 37.7 °F 30.04 in SW 2.0 mph 4.0 mph 41% 0.00 in 884 W/m2
14:12 62.0 °F 36.7 °F 30.04 in SSW 2.0 mph 4.0 mph 39% 0.00 in 877 W/m2
14:18 62.7 °F 38.0 °F 30.04 in WNW 2.0 mph 8.0 mph 40% 0.00 in 872 W/m2
14:24 62.7 °F 38.6 °F 30.03 in NNW 2.0 mph 4.0 mph 41% 0.00 in 868 W/m2
14:30 63.4 °F 39.3 °F 30.03 in NNW 1.0 mph 1.0 mph 41% 0.00 in 858 W/m2
14:36 63.3 °F 33.7 °F 30.03 in SW 2.0 mph 4.0 mph 33% 0.00 in 854 W/m2
14:42 62.5 °F 33.0 °F 30.03 in SW 3.0 mph 5.0 mph 33% 0.00 in 846 W/m2
14:48 63.7 °F 32.5 °F 30.02 in WSW 3.0 mph 5.0 mph 31% 0.00 in 837 W/m2
14:54 62.9 °F 30.1 °F 30.02 in SSE 3.0 mph 3.0 mph 29% 0.00 in 824 W/m2
15:00 63.2 °F 35.8 °F 30.01 in NW 2.0 mph 2.0 mph 36% 0.00 in 814 W/m2
15:06 64.5 °F 36.9 °F 30.01 in NW 2.0 mph 4.0 mph 36% 0.00 in 807 W/m2
15:12 64.2 °F 36.7 °F 30.01 in NNW 3.0 mph 4.0 mph 36% 0.00 in 793 W/m2
15:18 64.3 °F 32.2 °F 30.01 in WNW 3.0 mph 4.0 mph 30% 0.00 in 782 W/m2
15:24 64.1 °F 33.6 °F 30.01 in WNW 2.0 mph 3.0 mph 32% 0.00 in 770 W/m2
15:30 64.7 °F 34.9 °F 30.01 in WNW 2.0 mph 2.0 mph 33% 0.00 in 758 W/m2
15:36 64.1 °F 35.9 °F 30.01 in NNW 3.0 mph 4.0 mph 35% 0.00 in 742 W/m2
15:42 64.8 °F 35.0 °F 30.01 in WSW 3.0 mph 3.0 mph 33% 0.00 in 731 W/m2
15:48 65.2 °F 33.8 °F 30.00 in NW 2.0 mph 3.0 mph 31% 0.00 in 715 W/m2
15:54 64.5 °F 30.6 °F 30.00 in WNW 2.0 mph 4.0 mph 28% 0.00 in 703 W/m2
16:00 64.5 °F 32.4 °F 30.00 in South 2.0 mph 2.0 mph 30% 0.00 in 691 W/m2
16:06 65.8 °F 34.3 °F 30.00 in WSW 2.0 mph 4.0 mph 31% 0.00 in 673 W/m2
16:12 65.4 °F 32.3 °F 30.00 in SW 3.0 mph 3.0 mph 29% 0.00 in 659 W/m2
16:18 65.1 °F 34.5 °F 29.99 in WSW 2.0 mph 3.0 mph 32% 0.00 in 643 W/m2
16:24 64.9 °F 32.7 °F 29.99 in West 2.0 mph 5.0 mph 30% 0.00 in 628 W/m2
16:30 65.0 °F 36.7 °F 29.99 in WSW 3.0 mph 3.0 mph 35% 0.00 in 612 W/m2
16:36 65.6 °F 39.3 °F 29.99 in NW 2.0 mph 3.0 mph 38% 0.00 in 594 W/m2
16:42 66.0 °F 33.7 °F 29.98 in WSW 1.0 mph 4.0 mph 30% 0.00 in 577 W/m2
16:48 65.9 °F 36.0 °F 29.98 in West 3.0 mph 4.0 mph 33% 0.00 in 559 W/m2
16:54 65.4 °F 34.8 °F 29.98 in SSW 3.0 mph 5.0 mph 32% 0.00 in 540 W/m2
17:00 64.8 °F 35.0 °F 29.99 in SW 3.0 mph 4.0 mph 33% 0.00 in 520 W/m2
17:06 65.0 °F 34.4 °F 29.99 in NW 3.0 mph 4.0 mph 32% 0.00 in 503 W/m2
17:12 65.6 °F 31.6 °F 29.99 in WNW 2.0 mph 3.0 mph 28% 0.00 in 485 W/m2
17:18 65.6 °F 31.6 °F 29.99 in West 2.0 mph 3.0 mph 28% 0.00 in 466 W/m2
17:24 65.9 °F 33.6 °F 29.99 in WSW 2.0 mph 8.0 mph 30% 0.00 in 450 W/m2
17:30 66.0 °F 31.9 °F 30.00 in SW 3.0 mph 7.0 mph 28% 0.00 in 432 W/m2
17:36 66.0 °F 31.9 °F 30.00 in WSW 3.0 mph 7.0 mph 28% 0.00 in 327 W/m2
17:42 66.1 °F 32.9 °F 30.00 in NW 1.0 mph 2.0 mph 29% 0.00 in 181 W/m2
17:48 65.8 °F 30.9 °F 30.00 in WSW 2.0 mph 4.0 mph 27% 0.00 in 283 W/m2
17:54 65.6 °F 31.6 °F 30.00 in WSW 2.0 mph 6.0 mph 28% 0.00 in 169 W/m2
18:00 65.6 °F 32.5 °F 30.00 in NW 2.0 mph 2.0 mph 29% 0.00 in 146 W/m2
18:06 65.6 °F 32.5 °F 30.00 in NW 1.0 mph 2.0 mph 29% 0.00 in 206 W/m2
18:12 66.0 °F 31.9 °F 30.00 in WNW 1.0 mph 1.0 mph 28% 0.00 in 163 W/m2
18:18 65.8 °F 32.6 °F 30.00 in WNW 1.0 mph 2.0 mph 29% 0.00 in 116 W/m2
18:24 65.3 °F 31.3 °F 30.00 in WNW 2.0 mph 4.0 mph 28% 0.00 in 56 W/m2
18:30 64.9 °F 31.0 °F 30.00 in West 2.0 mph 4.0 mph 28% 0.00 in 69 W/m2
18:36 64.9 °F 33.5 °F 30.00 in West 1.0 mph 4.0 mph 31% 0.00 in 77 W/m2
18:42 64.7 °F 32.5 °F 30.00 in WNW 1.0 mph 1.0 mph 30% 0.00 in 95 W/m2
18:48 64.5 °F 30.6 °F 30.00 in WNW 1.0 mph 1.0 mph 28% 0.00 in 109 W/m2
18:54 64.5 °F 33.2 °F 30.00 in Calm   1.0 mph 31% 0.00 in 54 W/m2
19:00 64.2 °F 33.7 °F 30.01 in WNW 1.0 mph 1.0 mph 32% 0.00 in 28 W/m2
19:06 64.0 °F 32.7 °F 30.01 in Calm   1.0 mph 31% 0.00 in 63 W/m2
19:12 63.7 °F 31.7 °F 30.01 in Calm     30% 0.00 in 63 W/m2
19:18 63.3 °F 32.1 °F 30.01 in Calm     31% 0.00 in 23 W/m2
19:24 63.0 °F 32.7 °F 30.01 in Calm     32% 0.00 in 21 W/m2
19:30 62.5 °F 32.2 °F 30.01 in Calm     32% 0.00 in 18 W/m2
20:46 55.9 °F 41.3 °F 30.02 in Calm     58% 0.00 in 0 W/m2
20:52 54.7 °F 41.5 °F 30.01 in Calm     61% 0.00 in 0 W/m2
20:58 53.2 °F 40.1 °F 30.02 in Calm     61% 0.00 in 0 W/m2
21:04 52.3 °F 38.8 °F 30.02 in Calm     60% 0.00 in 0 W/m2
21:10 51.9 °F 38.4 °F 30.02 in Calm     60% 0.00 in 0 W/m2
21:16 51.6 °F 38.6 °F 30.02 in Calm     61% 0.00 in 0 W/m2
21:22 51.2 °F 38.6 °F 30.03 in Calm     62% 0.00 in 0 W/m2
21:28 50.7 °F 38.6 °F 30.03 in Calm     63% 0.00 in 0 W/m2
21:34 50.3 °F 38.6 °F 30.03 in Calm     64% 0.00 in 0 W/m2
21:40 50.1 °F 38.4 °F 30.03 in Calm     64% 0.00 in 0 W/m2
21:46 49.8 °F 38.5 °F 30.03 in Calm     65% 0.00 in 0 W/m2
21:52 49.6 °F 38.7 °F 30.03 in Calm     66% 0.00 in 0 W/m2
21:58 49.3 °F 38.4 °F 30.03 in Calm     66% 0.00 in 0 W/m2
22:04 48.9 °F 38.4 °F 30.03 in Calm     67% 0.00 in 0 W/m2
22:10 48.5 °F 38.4 °F 30.03 in Calm     68% 0.00 in 0 W/m2
22:16 48.3 °F 38.2 °F 30.03 in Calm   3.0 mph 68% 0.00 in 0 W/m2
22:22 48.3 °F 38.6 °F 30.03 in NW 1.0 mph 1.0 mph 69% 0.00 in 0 W/m2
22:28 48.1 °F 38.8 °F 30.03 in Calm   1.0 mph 70% 0.00 in 0 W/m2
22:34 47.9 °F 39.3 °F 30.03 in Calm     72% 0.00 in 0 W/m2
22:40 47.6 °F 39.4 °F 30.03 in Calm     73% 0.00 in 0 W/m2
22:46 47.2 °F 39.7 °F 30.03 in Calm     75% 0.00 in 0 W/m2
22:52 46.9 °F 39.7 °F 30.03 in Calm     76% 0.00 in 0 W/m2
22:58 46.5 °F 39.3 °F 30.03 in Calm     76% 0.00 in 0 W/m2
23:04 45.8 °F 39.0 °F 30.03 in Calm     77% 0.00 in 0 W/m2
23:10 45.6 °F 38.8 °F 30.03 in Calm     77% 0.00 in 0 W/m2
23:16 45.3 °F 38.5 °F 30.03 in Calm     77% 0.00 in 0 W/m2
23:28 44.9 °F 38.5 °F 30.04 in Calm     78% 0.00 in 0 W/m2
23:34 44.8 °F 38.7 °F 30.04 in Calm     79% 0.00 in 0 W/m2
23:40 44.5 °F 38.4 °F 30.04 in Calm     79% 0.00 in 0 W/m2
23:46 44.2 °F 38.1 °F 30.04 in Calm     79% 0.00 in 0 W/m2
23:52 44.1 °F 38.3 °F 30.04 in Calm     80% 0.00 in 0 W/m2
23:58 43.9 °F 37.8 °F 30.04 in Calm     79% 0.00 in 0 W/m2
Country Meadow, Clay, NY, USA
Compliments of Weather Underground - 2 mb